sensor_id;sensor_type;location;lat;lon;timestamp;pressure;altitude;pressure_sealevel;temperature;humidity
64298;BME280;50639;53.270;7.956;2023-08-17T08:28:49;102092.53;;;18.43;nan
64298;BME280;50639;53.270;7.956;2023-08-17T08:41:54;102091.78;;;19.57;nan
64298;BME280;50639;53.270;7.956;2023-08-17T08:44:20;102084.72;;;19.80;nan
64298;BME280;50639;53.270;7.956;2023-08-17T08:46:46;102086.59;;;19.89;nan
64298;BME280;50639;53.270;7.956;2023-08-17T08:49:12;102080.50;;;19.88;nan
64298;BME280;50639;53.270;7.956;2023-08-17T08:51:44;102091.28;;;19.85;nan
64298;BME280;50639;53.270;7.956;2023-08-17T08:54:13;102088.28;;;19.45;nan
64298;BME280;50639;53.270;7.956;2023-08-17T08:56:42;102082.06;;;19.35;nan
64298;BME280;50639;53.270;7.956;2023-08-17T08:59:09;102080.28;;;19.25;nan
64298;BME280;50639;53.270;7.956;2023-08-17T09:01:35;102081.34;;;19.33;nan
64298;BME280;50639;53.270;7.956;2023-08-17T09:04:02;102091.91;;;19.56;nan
64298;BME280;50639;53.270;7.956;2023-08-17T09:06:32;102084.59;;;19.70;nan
64298;BME280;50639;53.270;7.956;2023-08-17T09:08:58;102090.56;;;19.72;nan
64298;BME280;50639;53.270;7.956;2023-08-17T09:11:24;102087.00;;;19.51;nan
64298;BME280;50639;53.270;7.956;2023-08-17T09:13:52;102092.19;;;19.29;nan
64298;BME280;50639;53.270;7.956;2023-08-17T09:16:17;102083.72;;;19.36;nan
64298;BME280;50639;53.270;7.956;2023-08-17T09:18:43;102097.28;;;19.54;nan
64298;BME280;50639;53.270;7.956;2023-08-17T09:21:20;102100.47;;;19.46;nan
64298;BME280;50639;53.270;7.956;2023-08-17T09:23:50;102101.84;;;19.52;nan
64298;BME280;50639;53.270;7.956;2023-08-17T09:26:19;102099.38;;;19.38;nan
64298;BME280;50639;53.270;7.956;2023-08-17T09:28:44;102108.94;;;19.39;nan
64298;BME280;50639;53.270;7.956;2023-08-17T09:31:11;102110.16;;;19.35;nan
64298;BME280;50639;53.270;7.956;2023-08-17T09:33:37;102109.91;;;19.38;nan
64298;BME280;50639;53.270;7.956;2023-08-17T09:36:02;102117.00;;;19.02;nan
64298;BME280;50639;53.270;7.956;2023-08-17T09:38:28;102109.81;;;18.93;nan
64298;BME280;50639;53.270;7.956;2023-08-17T09:40:54;102106.00;;;18.97;nan
64298;BME280;50639;53.270;7.956;2023-08-17T09:43:19;102098.09;;;18.86;nan
64298;BME280;50639;53.270;7.956;2023-08-17T09:45:49;102105.50;;;18.81;nan
64298;BME280;50639;53.270;7.956;2023-08-17T09:48:18;102103.75;;;18.69;nan
64298;BME280;50639;53.270;7.956;2023-08-17T09:50:47;102096.72;;;18.69;nan
64298;BME280;50639;53.270;7.956;2023-08-17T09:53:14;102100.78;;;18.73;nan
64298;BME280;50639;53.270;7.956;2023-08-17T09:55:46;102103.38;;;18.62;nan
64298;BME280;50639;53.270;7.956;2023-08-17T09:58:12;102096.34;;;18.63;nan
64298;BME280;50639;53.270;7.956;2023-08-17T10:00:46;102090.75;;;18.67;nan
64298;BME280;50639;53.270;7.956;2023-08-17T10:03:13;102095.50;;;18.62;nan
64298;BME280;50639;53.270;7.956;2023-08-17T10:05:40;102088.75;;;18.71;nan
64298;BME280;50639;53.270;7.956;2023-08-17T10:08:07;102087.44;;;18.76;nan
64298;BME280;50639;53.270;7.956;2023-08-17T10:10:35;102083.53;;;18.82;nan
64298;BME280;50639;53.270;7.956;2023-08-17T10:13:08;102081.03;;;18.92;nan
64298;BME280;50639;53.270;7.956;2023-08-17T10:15:38;102077.94;;;18.87;nan
64298;BME280;50639;53.270;7.956;2023-08-17T10:20:46;102071.16;;;18.95;nan
64298;BME280;50639;53.270;7.956;2023-08-17T10:23:17;102067.97;;;19.14;nan
64298;BME280;50639;53.270;7.956;2023-08-17T10:25:43;102066.53;;;19.21;nan
64298;BME280;50639;53.270;7.956;2023-08-17T10:28:12;102062.59;;;19.38;nan
64298;BME280;50639;53.270;7.956;2023-08-17T10:30:38;102058.66;;;19.32;nan
64298;BME280;50639;53.270;7.956;2023-08-17T10:33:05;102049.19;;;18.96;nan
64298;BME280;50639;53.270;7.956;2023-08-17T10:35:33;102044.44;;;19.12;nan
64298;BME280;50639;53.270;7.956;2023-08-17T10:49:43;102063.19;;;19.30;nan
64298;BME280;50639;53.270;7.956;2023-08-17T10:52:09;102055.44;;;19.29;nan
64298;BME280;50639;53.270;7.956;2023-08-17T10:54:42;102051.50;;;19.23;nan
64298;BME280;50639;53.270;7.956;2023-08-17T10:57:36;102056.66;;;19.58;nan
64298;BME280;50639;53.270;7.956;2023-08-17T11:00:15;102044.94;;;19.62;nan
64298;BME280;50639;53.270;7.956;2023-08-17T11:02:58;102046.69;;;19.95;nan
64298;BME280;50639;53.270;7.956;2023-08-17T11:05:44;102044.81;;;20.18;nan
64298;BME280;50639;53.270;7.956;2023-08-17T11:08:19;102047.16;;;20.32;nan
64298;BME280;50639;53.270;7.956;2023-08-17T11:11:04;102053.16;;;20.23;nan
64298;BME280;50639;53.270;7.956;2023-08-17T11:13:32;102051.59;;;20.32;nan
64298;BME280;50639;53.270;7.956;2023-08-17T11:15:59;102049.78;;;20.32;nan
64298;BME280;50639;53.270;7.956;2023-08-17T11:18:24;102055.31;;;20.29;nan
64298;BME280;50639;53.270;7.956;2023-08-17T11:20:50;102050.41;;;20.24;nan
64298;BME280;50639;53.270;7.956;2023-08-17T11:23:16;102045.97;;;20.36;nan
64298;BME280;50639;53.270;7.956;2023-08-17T11:25:42;102044.84;;;20.07;nan
64298;BME280;50639;53.270;7.956;2023-08-17T11:28:08;102036.47;;;20.13;nan
64298;BME280;50639;53.270;7.956;2023-08-17T11:30:34;102039.38;;;20.42;nan
64298;BME280;50639;53.270;7.956;2023-08-17T11:33:02;102049.13;;;20.51;nan
64298;BME280;50639;53.270;7.956;2023-08-17T11:35:28;102050.31;;;20.58;nan
64298;BME280;50639;53.270;7.956;2023-08-17T11:37:53;102050.06;;;20.61;nan
64298;BME280;50639;53.270;7.956;2023-08-17T11:40:19;102048.44;;;20.70;nan
64298;BME280;50639;53.270;7.956;2023-08-17T11:42:45;102043.47;;;20.23;nan
64298;BME280;50639;53.270;7.956;2023-08-17T11:45:11;102041.38;;;20.49;nan
64298;BME280;50639;53.270;7.956;2023-08-17T11:47:38;102033.56;;;20.80;nan
64298;BME280;50639;53.270;7.956;2023-08-17T11:50:04;102036.06;;;21.02;nan
64298;BME280;50639;53.270;7.956;2023-08-17T11:52:31;102030.06;;;21.21;nan
64298;BME280;50639;53.270;7.956;2023-08-17T11:55:02;102029.72;;;21.14;nan
64298;BME280;50639;53.270;7.956;2023-08-17T11:57:29;102026.91;;;21.06;nan
64298;BME280;50639;53.270;7.956;2023-08-17T11:59:55;102027.41;;;21.21;nan
64298;BME280;50639;53.270;7.956;2023-08-17T12:02:23;102025.94;;;21.28;nan
64298;BME280;50639;53.270;7.956;2023-08-17T12:04:50;102028.28;;;21.31;nan
64298;BME280;50639;53.270;7.956;2023-08-17T12:07:17;102026.88;;;20.55;nan
64298;BME280;50639;53.270;7.956;2023-08-17T12:09:43;102026.78;;;21.08;nan
64298;BME280;50639;53.270;7.956;2023-08-17T12:12:10;102022.22;;;21.40;nan
64298;BME280;50639;53.270;7.956;2023-08-17T12:14:36;102029.22;;;21.51;nan
64298;BME280;50639;53.270;7.956;2023-08-17T12:17:02;102033.06;;;21.47;nan
64298;BME280;50639;53.270;7.956;2023-08-17T12:19:29;102024.16;;;21.08;nan
64298;BME280;50639;53.270;7.956;2023-08-17T12:21:55;102030.06;;;20.58;nan
64298;BME280;50639;53.270;7.956;2023-08-17T12:24:23;102024.69;;;20.60;nan
64298;BME280;50639;53.270;7.956;2023-08-17T12:26:49;102025.91;;;20.97;nan
64298;BME280;50639;53.270;7.956;2023-08-17T12:29:15;102017.81;;;20.89;nan
64298;BME280;50639;53.270;7.956;2023-08-17T12:31:40;102025.78;;;20.99;nan
64298;BME280;50639;53.270;7.956;2023-08-17T12:34:06;102026.47;;;21.01;nan
64298;BME280;50639;53.270;7.956;2023-08-17T12:36:32;102016.19;;;20.98;nan
64298;BME280;50639;53.270;7.956;2023-08-17T12:38:58;102022.13;;;20.70;nan
64298;BME280;50639;53.270;7.956;2023-08-17T12:41:24;102025.91;;;20.77;nan
64298;BME280;50639;53.270;7.956;2023-08-17T12:43:49;102023.09;;;20.89;nan
64298;BME280;50639;53.270;7.956;2023-08-17T12:46:15;102020.25;;;20.81;nan
64298;BME280;50639;53.270;7.956;2023-08-17T12:48:40;102023.03;;;20.80;nan
64298;BME280;50639;53.270;7.956;2023-08-17T12:51:06;102024.75;;;20.70;nan
64298;BME280;50639;53.270;7.956;2023-08-17T12:53:31;102018.47;;;20.61;nan
64298;BME280;50639;53.270;7.956;2023-08-17T12:55:57;102020.00;;;20.63;nan
64298;BME280;50639;53.270;7.956;2023-08-17T12:58:23;102014.81;;;20.73;nan
64298;BME280;50639;53.270;7.956;2023-08-17T13:00:49;102018.84;;;20.77;nan
64298;BME280;50639;53.270;7.956;2023-08-17T13:03:19;102013.00;;;20.74;nan
64298;BME280;50639;53.270;7.956;2023-08-17T13:05:44;102009.97;;;20.78;nan
64298;BME280;50639;53.270;7.956;2023-08-17T13:08:10;102013.44;;;20.79;nan
64298;BME280;50639;53.270;7.956;2023-08-17T13:10:36;102011.00;;;20.87;nan
64298;BME280;50639;53.270;7.956;2023-08-17T13:13:02;102011.41;;;20.82;nan
64298;BME280;50639;53.270;7.956;2023-08-17T13:15:28;102017.50;;;20.83;nan
64298;BME280;50639;53.270;7.956;2023-08-17T13:17:54;102013.66;;;20.66;nan
64298;BME280;50639;53.270;7.956;2023-08-17T13:20:20;102015.00;;;20.81;nan
64298;BME280;50639;53.270;7.956;2023-08-17T13:22:46;102017.94;;;20.88;nan
64298;BME280;50639;53.270;7.956;2023-08-17T13:25:11;102013.16;;;21.02;nan
64298;BME280;50639;53.270;7.956;2023-08-17T13:27:37;102017.34;;;21.05;nan
64298;BME280;50639;53.270;7.956;2023-08-17T13:30:02;102014.00;;;21.03;nan
64298;BME280;50639;53.270;7.956;2023-08-17T13:32:28;102018.41;;;20.93;nan
64298;BME280;50639;53.270;7.956;2023-08-17T13:34:54;102015.22;;;20.99;nan
64298;BME280;50639;53.270;7.956;2023-08-17T13:37:19;102011.81;;;21.08;nan
64298;BME280;50639;53.270;7.956;2023-08-17T13:39:45;102012.91;;;21.06;nan
64298;BME280;50639;53.270;7.956;2023-08-17T13:42:11;102013.88;;;21.04;nan
64298;BME280;50639;53.270;7.956;2023-08-17T13:44:38;102013.69;;;20.96;nan
64298;BME280;50639;53.270;7.956;2023-08-17T13:47:03;102012.91;;;20.85;nan
64298;BME280;50639;53.270;7.956;2023-08-17T13:49:29;102019.13;;;20.74;nan
64298;BME280;50639;53.270;7.956;2023-08-17T13:51:54;102008.41;;;20.66;nan
64298;BME280;50639;53.270;7.956;2023-08-17T13:54:21;102006.19;;;20.71;nan
64298;BME280;50639;53.270;7.956;2023-08-17T13:56:47;102015.19;;;20.69;nan
64298;BME280;50639;53.270;7.956;2023-08-17T13:59:13;102019.75;;;20.67;nan
64298;BME280;50639;53.270;7.956;2023-08-17T14:01:38;102023.53;;;20.74;nan
64298;BME280;50639;53.270;7.956;2023-08-17T14:04:04;102018.53;;;20.71;nan
64298;BME280;50639;53.270;7.956;2023-08-17T14:06:32;102029.59;;;20.64;nan
64298;BME280;50639;53.270;7.956;2023-08-17T14:08:57;102021.56;;;20.66;nan
64298;BME280;50639;53.270;7.956;2023-08-17T14:11:23;102025.59;;;20.70;nan
64298;BME280;50639;53.270;7.956;2023-08-17T14:13:48;102038.31;;;20.65;nan
64298;BME280;50639;53.270;7.956;2023-08-17T14:16:14;102031.75;;;20.59;nan
64298;BME280;50639;53.270;7.956;2023-08-17T14:18:39;102037.84;;;20.60;nan
64298;BME280;50639;53.270;7.956;2023-08-17T14:21:04;102025.53;;;20.60;nan
64298;BME280;50639;53.270;7.956;2023-08-17T14:23:30;102029.25;;;20.58;nan
64298;BME280;50639;53.270;7.956;2023-08-17T14:25:55;102043.19;;;20.49;nan
64298;BME280;50639;53.270;7.956;2023-08-17T14:28:21;102038.69;;;20.40;nan
64298;BME280;50639;53.270;7.956;2023-08-17T14:30:46;102038.47;;;20.20;nan
64298;BME280;50639;53.270;7.956;2023-08-17T14:33:12;102045.53;;;20.20;nan
64298;BME280;50639;53.270;7.956;2023-08-17T14:35:40;102036.69;;;20.21;nan
64298;BME280;50639;53.270;7.956;2023-08-17T14:38:06;102044.69;;;20.19;nan
64298;BME280;50639;53.270;7.956;2023-08-17T14:40:35;102034.69;;;20.13;nan
64298;BME280;50639;53.270;7.956;2023-08-17T14:43:01;102041.47;;;20.16;nan
64298;BME280;50639;53.270;7.956;2023-08-17T14:45:26;102031.44;;;20.21;nan
64298;BME280;50639;53.270;7.956;2023-08-17T14:47:51;102044.59;;;20.21;nan
64298;BME280;50639;53.270;7.956;2023-08-17T14:50:17;102035.25;;;20.17;nan
64298;BME280;50639;53.270;7.956;2023-08-17T14:52:42;102040.50;;;20.17;nan
64298;BME280;50639;53.270;7.956;2023-08-17T14:55:08;102043.97;;;20.17;nan
64298;BME280;50639;53.270;7.956;2023-08-17T14:57:34;102047.84;;;20.13;nan
64298;BME280;50639;53.270;7.956;2023-08-17T14:59:59;102050.81;;;20.09;nan
64298;BME280;50639;53.270;7.956;2023-08-17T15:02:25;102049.03;;;20.09;nan
64298;BME280;50639;53.270;7.956;2023-08-17T15:04:50;102048.19;;;20.09;nan
64298;BME280;50639;53.270;7.956;2023-08-17T15:07:15;102047.38;;;19.97;nan
64298;BME280;50639;53.270;7.956;2023-08-17T15:09:41;102033.38;;;20.08;nan
64298;BME280;50639;53.270;7.956;2023-08-17T15:12:07;102033.34;;;20.19;nan
64298;BME280;50639;53.270;7.956;2023-08-17T15:14:32;102037.38;;;20.23;nan
64298;BME280;50639;53.270;7.956;2023-08-17T15:16:58;102041.44;;;20.27;nan
64298;BME280;50639;53.270;7.956;2023-08-17T15:19:23;102043.00;;;20.29;nan
64298;BME280;50639;53.270;7.956;2023-08-17T15:21:48;102035.81;;;20.32;nan
64298;BME280;50639;53.270;7.956;2023-08-17T15:24:14;102041.97;;;20.53;nan
64298;BME280;50639;53.270;7.956;2023-08-17T15:26:39;102036.72;;;20.74;nan
64298;BME280;50639;53.270;7.956;2023-08-17T15:29:05;102032.91;;;20.87;nan
64298;BME280;50639;53.270;7.956;2023-08-17T15:31:31;102026.97;;;20.95;nan
64298;BME280;50639;53.270;7.956;2023-08-17T15:33:56;102024.28;;;21.06;nan
64298;BME280;50639;53.270;7.956;2023-08-17T15:36:22;102025.75;;;21.20;nan
64298;BME280;50639;53.270;7.956;2023-08-17T15:38:52;102021.75;;;21.25;nan
64298;BME280;50639;53.270;7.956;2023-08-17T15:41:18;102030.75;;;21.23;nan
64298;BME280;50639;53.270;7.956;2023-08-17T15:43:43;102024.28;;;21.06;nan
64298;BME280;50639;53.270;7.956;2023-08-17T15:46:10;102027.09;;;20.93;nan
64298;BME280;50639;53.270;7.956;2023-08-17T15:48:35;102022.44;;;20.97;nan
64298;BME280;50639;53.270;7.956;2023-08-17T15:51:01;102026.59;;;20.99;nan
64298;BME280;50639;53.270;7.956;2023-08-17T15:53:27;102020.63;;;20.97;nan
64298;BME280;50639;53.270;7.956;2023-08-17T15:55:52;102019.78;;;20.97;nan
64298;BME280;50639;53.270;7.956;2023-08-17T15:58:17;102018.81;;;20.98;nan
64298;BME280;50639;53.270;7.956;2023-08-17T16:00:43;102012.28;;;20.92;nan
64298;BME280;50639;53.270;7.956;2023-08-17T16:03:08;102017.16;;;20.97;nan
64298;BME280;50639;53.270;7.956;2023-08-17T16:05:34;102007.09;;;21.02;nan
64298;BME280;50639;53.270;7.956;2023-08-17T16:07:59;102016.91;;;21.00;nan
64298;BME280;50639;53.270;7.956;2023-08-17T16:10:26;102009.97;;;20.99;nan
64298;BME280;50639;53.270;7.956;2023-08-17T16:12:51;102009.00;;;21.00;nan
64298;BME280;50639;53.270;7.956;2023-08-17T16:15:17;102013.56;;;20.98;nan
64298;BME280;50639;53.270;7.956;2023-08-17T16:17:42;102014.75;;;20.84;nan
64298;BME280;50639;53.270;7.956;2023-08-17T16:20:08;102005.28;;;20.82;nan
64298;BME280;50639;53.270;7.956;2023-08-17T16:22:34;102008.78;;;20.82;nan
64298;BME280;50639;53.270;7.956;2023-08-17T16:24:59;102006.97;;;20.83;nan
64298;BME280;50639;53.270;7.956;2023-08-17T16:27:25;101994.53;;;20.94;nan
64298;BME280;50639;53.270;7.956;2023-08-17T16:29:50;101998.84;;;20.95;nan
64298;BME280;50639;53.270;7.956;2023-08-17T16:32:15;102000.88;;;20.82;nan
64298;BME280;50639;53.270;7.956;2023-08-17T16:34:41;101990.88;;;20.86;nan
64298;BME280;50639;53.270;7.956;2023-08-17T16:37:06;101995.06;;;20.88;nan
64298;BME280;50639;53.270;7.956;2023-08-17T16:39:32;101997.03;;;20.96;nan
64298;BME280;50639;53.270;7.956;2023-08-17T16:41:57;101992.78;;;21.04;nan
64298;BME280;50639;53.270;7.956;2023-08-17T16:44:23;101984.22;;;21.12;nan
64298;BME280;50639;53.270;7.956;2023-08-17T16:46:48;101976.00;;;21.26;nan
64298;BME280;50639;53.270;7.956;2023-08-17T16:49:16;101977.09;;;21.24;nan
64298;BME280;50639;53.270;7.956;2023-08-17T16:51:42;101981.47;;;21.14;nan
64298;BME280;50639;53.270;7.956;2023-08-17T16:54:07;101980.03;;;21.00;nan
64298;BME280;50639;53.270;7.956;2023-08-17T16:56:32;101976.38;;;20.91;nan
64298;BME280;50639;53.270;7.956;2023-08-17T16:58:58;101979.03;;;20.71;nan
64298;BME280;50639;53.270;7.956;2023-08-17T17:01:24;101976.22;;;20.62;nan
64298;BME280;50639;53.270;7.956;2023-08-17T17:03:49;101975.19;;;20.54;nan
64298;BME280;50639;53.270;7.956;2023-08-17T17:06:15;101974.47;;;20.52;nan
64298;BME280;50639;53.270;7.956;2023-08-17T17:08:40;101966.50;;;20.42;nan
64298;BME280;50639;53.270;7.956;2023-08-17T17:11:06;101964.72;;;20.43;nan
64298;BME280;50639;53.270;7.956;2023-08-17T17:13:33;101971.88;;;20.20;nan
64298;BME280;50639;53.270;7.956;2023-08-17T17:16:00;101962.09;;;20.11;nan
64298;BME280;50639;53.270;7.956;2023-08-17T17:18:25;101977.81;;;20.01;nan
64298;BME280;50639;53.270;7.956;2023-08-17T17:20:51;101974.34;;;20.01;nan
64298;BME280;50639;53.270;7.956;2023-08-17T17:23:16;101967.94;;;19.82;nan
64298;BME280;50639;53.270;7.956;2023-08-17T17:25:42;101969.75;;;19.82;nan
64298;BME280;50639;53.270;7.956;2023-08-17T17:28:07;101971.09;;;19.65;nan
64298;BME280;50639;53.270;7.956;2023-08-17T17:30:33;101972.16;;;19.63;nan
64298;BME280;50639;53.270;7.956;2023-08-17T17:32:58;101975.75;;;19.62;nan
64298;BME280;50639;53.270;7.956;2023-08-17T17:35:24;101974.34;;;19.58;nan
64298;BME280;50639;53.270;7.956;2023-08-17T17:37:49;101974.94;;;19.61;nan
64298;BME280;50639;53.270;7.956;2023-08-17T17:40:14;101978.97;;;19.65;nan
64298;BME280;50639;53.270;7.956;2023-08-17T17:42:40;101979.81;;;19.66;nan
64298;BME280;50639;53.270;7.956;2023-08-17T17:45:06;101976.84;;;19.59;nan
64298;BME280;50639;53.270;7.956;2023-08-17T17:47:31;101972.78;;;19.55;nan
64298;BME280;50639;53.270;7.956;2023-08-17T17:50:04;101977.09;;;19.56;nan
64298;BME280;50639;53.270;7.956;2023-08-17T17:52:30;101984.03;;;19.57;nan
64298;BME280;50639;53.270;7.956;2023-08-17T17:54:56;101973.50;;;19.57;nan
64298;BME280;50639;53.270;7.956;2023-08-17T17:57:21;101973.06;;;19.52;nan
64298;BME280;50639;53.270;7.956;2023-08-17T17:59:47;101973.16;;;19.50;nan
64298;BME280;50639;53.270;7.956;2023-08-17T18:02:14;101980.34;;;19.48;nan
64298;BME280;50639;53.270;7.956;2023-08-17T18:04:39;101988.31;;;19.47;nan
64298;BME280;50639;53.270;7.956;2023-08-17T18:07:05;101981.28;;;19.47;nan
64298;BME280;50639;53.270;7.956;2023-08-17T18:09:34;101984.97;;;19.34;nan
64298;BME280;50639;53.270;7.956;2023-08-17T18:12:00;101980.69;;;19.33;nan
64298;BME280;50639;53.270;7.956;2023-08-17T18:14:25;101984.03;;;19.24;nan
64298;BME280;50639;53.270;7.956;2023-08-17T18:16:51;101981.41;;;19.24;nan
64298;BME280;50639;53.270;7.956;2023-08-17T18:19:16;101984.03;;;19.24;nan
64298;BME280;50639;53.270;7.956;2023-08-17T18:21:41;101991.41;;;19.18;nan
64298;BME280;50639;53.270;7.956;2023-08-17T18:24:07;101997.28;;;19.11;nan
64298;BME280;50639;53.270;7.956;2023-08-17T18:26:32;101992.84;;;19.11;nan
64298;BME280;50639;53.270;7.956;2023-08-17T18:28:58;101991.56;;;19.06;nan
64298;BME280;50639;53.270;7.956;2023-08-17T18:31:23;101993.22;;;19.07;nan
64298;BME280;50639;53.270;7.956;2023-08-17T18:33:49;101990.69;;;18.94;nan
64298;BME280;50639;53.270;7.956;2023-08-17T18:36:14;101999.63;;;18.92;nan
64298;BME280;50639;53.270;7.956;2023-08-17T18:38:40;101999.78;;;18.90;nan
64298;BME280;50639;53.270;7.956;2023-08-17T18:41:07;102000.00;;;18.87;nan
64298;BME280;50639;53.270;7.956;2023-08-17T18:43:33;101999.38;;;18.84;nan
64298;BME280;50639;53.270;7.956;2023-08-17T18:45:59;102010.38;;;18.77;nan
64298;BME280;50639;53.270;7.956;2023-08-17T18:48:24;102010.16;;;18.81;nan
64298;BME280;50639;53.270;7.956;2023-08-17T18:50:50;102000.94;;;18.75;nan
64298;BME280;50639;53.270;7.956;2023-08-17T18:53:15;102005.47;;;18.73;nan
64298;BME280;50639;53.270;7.956;2023-08-17T18:55:40;102006.44;;;18.72;nan
64298;BME280;50639;53.270;7.956;2023-08-17T18:58:06;102005.19;;;18.65;nan
64298;BME280;50639;53.270;7.956;2023-08-17T19:00:31;102015.09;;;18.61;nan
64298;BME280;50639;53.270;7.956;2023-08-17T19:02:56;102010.69;;;18.62;nan
64298;BME280;50639;53.270;7.956;2023-08-17T19:05:22;102007.66;;;18.55;nan
64298;BME280;50639;53.270;7.956;2023-08-17T19:07:47;102006.94;;;18.53;nan
64298;BME280;50639;53.270;7.956;2023-08-17T19:10:12;102013.97;;;18.53;nan
64298;BME280;50639;53.270;7.956;2023-08-17T19:12:38;102010.97;;;18.46;nan
64298;BME280;50639;53.270;7.956;2023-08-17T19:15:04;102012.63;;;18.47;nan
64298;BME280;50639;53.270;7.956;2023-08-17T19:17:30;102014.19;;;18.50;nan
64298;BME280;50639;53.270;7.956;2023-08-17T19:19:56;102013.81;;;18.43;nan
64298;BME280;50639;53.270;7.956;2023-08-17T19:22:21;102012.97;;;18.42;nan
64298;BME280;50639;53.270;7.956;2023-08-17T19:24:47;102006.91;;;18.42;nan
64298;BME280;50639;53.270;7.956;2023-08-17T19:27:12;102011.31;;;18.41;nan
64298;BME280;50639;53.270;7.956;2023-08-17T19:29:37;102002.84;;;18.38;nan
64298;BME280;50639;53.270;7.956;2023-08-17T19:32:03;102002.44;;;18.31;nan
64298;BME280;50639;53.270;7.956;2023-08-17T19:34:28;101995.50;;;18.30;nan
64298;BME280;50639;53.270;7.956;2023-08-17T19:36:54;101997.66;;;18.25;nan
64298;BME280;50639;53.270;7.956;2023-08-17T19:39:20;101990.09;;;18.21;nan
64298;BME280;50639;53.270;7.956;2023-08-17T19:41:45;101994.75;;;18.17;nan
64298;BME280;50639;53.270;7.956;2023-08-17T19:44:13;101996.00;;;18.00;nan
64298;BME280;50639;53.270;7.956;2023-08-17T19:46:39;101999.22;;;18.04;nan
64298;BME280;50639;53.270;7.956;2023-08-17T19:49:05;101991.69;;;17.99;nan
64298;BME280;50639;53.270;7.956;2023-08-17T19:51:30;101983.84;;;17.99;nan
64298;BME280;50639;53.270;7.956;2023-08-17T19:53:56;101996.16;;;18.10;nan
64298;BME280;50639;53.270;7.956;2023-08-17T19:56:21;101993.13;;;18.03;nan
64298;BME280;50639;53.270;7.956;2023-08-17T19:58:47;101997.69;;;18.01;nan
64298;BME280;50639;53.270;7.956;2023-08-17T20:01:12;101996.00;;;18.00;nan
64298;BME280;50639;53.270;7.956;2023-08-17T20:03:38;101996.94;;;17.99;nan
64298;BME280;50639;53.270;7.956;2023-08-17T20:06:04;102003.25;;;17.97;nan
64298;BME280;50639;53.270;7.956;2023-08-17T20:08:32;102002.41;;;17.96;nan
64298;BME280;50639;53.270;7.956;2023-08-17T20:10:58;102004.19;;;17.96;nan
64298;BME280;50639;53.270;7.956;2023-08-17T20:13:24;102005.25;;;17.93;nan
64298;BME280;50639;53.270;7.956;2023-08-17T20:15:53;102000.13;;;17.92;nan
64298;BME280;50639;53.270;7.956;2023-08-17T20:18:19;102002.63;;;17.93;nan
64298;BME280;50639;53.270;7.956;2023-08-17T20:20:55;102000.78;;;17.83;nan
64298;BME280;50639;53.270;7.956;2023-08-17T20:23:23;102002.47;;;17.84;nan
64298;BME280;50639;53.270;7.956;2023-08-17T20:25:49;101995.03;;;17.78;nan
64298;BME280;50639;53.270;7.956;2023-08-17T20:28:16;101990.72;;;17.77;nan
64298;BME280;50639;53.270;7.956;2023-08-17T20:30:42;101990.19;;;17.84;nan
64298;BME280;50639;53.270;7.956;2023-08-17T20:33:08;101993.97;;;17.80;nan
64298;BME280;50639;53.270;7.956;2023-08-17T20:35:35;101998.94;;;17.72;nan
64298;BME280;50639;53.270;7.956;2023-08-17T20:38:01;101996.81;;;17.77;nan
64298;BME280;50639;53.270;7.956;2023-08-17T20:40:26;101995.97;;;17.77;nan
64298;BME280;50639;53.270;7.956;2023-08-17T20:42:52;101996.81;;;17.77;nan
64298;BME280;50639;53.270;7.956;2023-08-17T20:45:18;101997.63;;;17.78;nan
64298;BME280;50639;53.270;7.956;2023-08-17T20:47:44;101998.72;;;17.75;nan
64298;BME280;50639;53.270;7.956;2023-08-17T20:50:09;101993.25;;;17.78;nan
64298;BME280;50639;53.270;7.956;2023-08-17T20:52:37;101989.41;;;17.71;nan
64298;BME280;50639;53.270;7.956;2023-08-17T20:55:03;101993.78;;;17.71;nan
64298;BME280;50639;53.270;7.956;2023-08-17T20:57:29;101989.50;;;17.70;nan
64298;BME280;50639;53.270;7.956;2023-08-17T20:59:54;101987.81;;;17.68;nan
64298;BME280;50639;53.270;7.956;2023-08-17T21:02:20;101988.66;;;17.69;nan
64298;BME280;50639;53.270;7.956;2023-08-17T21:04:45;101987.72;;;17.70;nan
64298;BME280;50639;53.270;7.956;2023-08-17T21:07:11;101992.34;;;17.66;nan
64298;BME280;50639;53.270;7.956;2023-08-17T21:09:36;101984.59;;;17.65;nan
64298;BME280;50639;53.270;7.956;2023-08-17T21:12:02;101987.22;;;17.65;nan
64298;BME280;50639;53.270;7.956;2023-08-17T21:14:28;101992.25;;;17.55;nan
64298;BME280;50639;53.270;7.956;2023-08-17T21:16:53;101990.78;;;17.51;nan
64298;BME280;50639;53.270;7.956;2023-08-17T21:19:18;101994.56;;;17.47;nan
64298;BME280;50639;53.270;7.956;2023-08-17T21:21:44;101993.72;;;17.47;nan
64298;BME280;50639;53.270;7.956;2023-08-17T21:24:09;101994.78;;;17.44;nan
64298;BME280;50639;53.270;7.956;2023-08-17T21:26:35;101982.84;;;17.40;nan
64298;BME280;50639;53.270;7.956;2023-08-17T21:29:00;101983.78;;;17.39;nan
64298;BME280;50639;53.270;7.956;2023-08-17T21:31:26;101977.09;;;17.35;nan
64298;BME280;50639;53.270;7.956;2023-08-17T21:33:51;101984.00;;;17.36;nan
64298;BME280;50639;53.270;7.956;2023-08-17T21:36:16;101984.00;;;17.36;nan
64298;BME280;50639;53.270;7.956;2023-08-17T21:38:42;101979.59;;;17.37;nan
64298;BME280;50639;53.270;7.956;2023-08-17T21:41:07;101975.31;;;17.36;nan
64298;BME280;50639;53.270;7.956;2023-08-17T21:43:33;101978.97;;;17.33;nan
64298;BME280;50639;53.270;7.956;2023-08-17T21:46:00;101970.06;;;17.36;nan
64298;BME280;50639;53.270;7.956;2023-08-17T21:48:26;101967.13;;;17.40;nan
64298;BME280;50639;53.270;7.956;2023-08-17T21:50:51;101964.72;;;17.37;nan
64298;BME280;50639;53.270;7.956;2023-08-17T21:53:20;101967.34;;;17.37;nan
64298;BME280;50639;53.270;7.956;2023-08-17T21:55:50;101962.09;;;17.37;nan
64298;BME280;50639;53.270;7.956;2023-08-17T21:58:17;101964.72;;;17.37;nan